Time;durP1;ratioP1;P1;durP2;ratioP2;P2;SDS_P1;SDS_P2;PMS_P1;PMS_P2;Temp;Humidity;BMP_temperature;BMP_pressure;BME280_temperature;BME280_humidity;BME280_pressure;Samples;Min_cycle;Max_cycle;Signal;HPM_P1;HPM_P2
2023/05/29 00:00:07;;;;;;;6.10;4.87;;;;;;;14.78;98.43;94433.13;5070341;28;20214;-45
2023/05/29 00:02:34;;;;;;;6.07;4.63;;;;;;;14.74;98.71;94434.44;5070229;28;20212;-45
2023/05/29 00:05:02;;;;;;;4.90;4.50;;;;;;;14.68;98.27;94423.03;5070142;28;20661;-45
2023/05/29 00:07:30;;;;;;;7.03;4.90;;;;;;;14.70;98.24;94431.38;5069687;28;20190;-44
2023/05/29 00:09:56;;;;;;;4.80;4.40;;;;;;;14.66;98.44;94432.69;5070233;28;20551;-45
2023/05/29 00:12:23;;;;;;;6.83;4.43;;;;;;;14.44;98.47;94407.69;5070256;28;20198;-46
2023/05/29 00:14:51;;;;;;;7.13;4.67;;;;;;;14.61;98.68;94439.31;5070005;28;20189;-45
2023/05/29 00:17:18;;;;;;;6.13;4.43;;;;;;;14.60;98.57;94441.09;5069820;28;20638;-45
2023/05/29 00:19:45;;;;;;;9.10;4.67;;;;;;;14.57;98.99;94441.44;5069764;28;20214;-45
2023/05/29 00:22:12;;;;;;;6.20;4.30;;;;;;;14.53;99.23;94438.38;5072655;28;20182;-45
2023/05/29 00:24:39;;;;;;;5.27;4.77;;;;;;;14.54;99.17;94437.41;5071312;28;20672;-45
2023/05/29 00:27:06;;;;;;;7.57;4.67;;;;;;;14.44;99.24;94426.50;5070002;28;20202;-43
2023/05/29 00:29:32;;;;;;;4.83;4.20;;;;;;;14.47;99.41;94436.47;5069127;28;20602;-44
2023/05/29 00:32:01;;;;;;;5.63;4.70;;;;;;;14.46;99.43;94441.75;5069626;28;20186;-44
2023/05/29 00:34:27;;;;;;;5.77;4.70;;;;;;;14.47;99.62;94439.03;5069818;28;20189;-44
2023/05/29 00:36:55;;;;;;;4.93;4.43;;;;;;;14.49;99.56;94438.88;5069008;28;20212;-44
2023/05/29 00:39:22;;;;;;;4.77;4.37;;;;;;;14.49;99.38;94434.53;5069418;28;20277;-44
2023/05/29 00:41:50;;;;;;;5.57;4.40;;;;;;;14.36;99.49;94412.88;5049296;28;20230;-45
2023/05/29 00:44:18;;;;;;;5.50;5.00;;;;;;;14.51;99.51;94440.34;5049586;28;20663;-44
2023/05/29 00:46:45;;;;;;;7.60;5.07;;;;;;;14.43;100.00;94430.03;5049158;28;20195;-46
2023/05/29 00:49:14;;;;;;;6.40;4.60;;;;;;;14.45;99.89;94430.66;5053253;28;20650;-46
2023/05/29 00:51:42;;;;;;;5.00;4.33;;;;;;;14.46;99.99;94427.13;5068987;28;20639;-45
2023/05/29 00:54:13;;;;;;;6.40;5.07;;;;;;;14.26;100.00;94400.22;5069737;28;20639;-43
2023/05/29 00:56:43;;;;;;;8.53;5.33;;;;;;;14.44;100.00;94428.28;5069546;28;20615;-41
2023/05/29 00:59:10;;;;;;;5.83;4.40;;;;;;;14.41;100.00;94421.69;5070195;28;20183;-45
2023/05/29 01:01:38;;;;;;;6.00;4.93;;;;;;;14.43;100.00;94427.47;5068616;28;20229;-46
2023/05/29 01:04:07;;;;;;;8.27;5.13;;;;;;;14.40;100.00;94420.09;5069817;28;20201;-46
2023/05/29 01:06:35;;;;;;;7.73;4.63;;;;;;;14.40;100.00;94422.66;5072749;28;20279;-44
2023/05/29 01:09:03;;;;;;;7.97;4.97;;;;;;;14.38;100.00;94424.59;5069493;28;20194;-46
2023/05/29 01:11:37;;;;;;;5.10;4.70;;;;;;;14.36;100.00;94413.66;5069054;28;20186;-44
2023/05/29 01:14:09;;;;;;;6.30;5.10;;;;;;;14.36;100.00;94421.38;5068827;28;20708;-44
2023/05/29 01:16:39;;;;;;;5.17;4.67;;;;;;;14.32;100.00;94420.91;5068791;28;20244;-44
2023/05/29 01:19:15;;;;;;;4.87;4.33;;;;;;;14.31;100.00;94421.09;5069257;28;20182;-45
2023/05/29 01:22:13;;;;;;;11.10;5.17;;;;;;;14.29;100.00;94423.84;5068580;28;20241;-44
2023/05/29 01:24:50;;;;;;;7.40;5.33;;;;;;;14.26;100.00;94429.31;5048855;28;20198;-45
2023/05/29 01:27:20;;;;;;;5.13;4.50;;;;;;;14.22;100.00;94430.59;5048749;28;20219;-45
2023/05/29 01:29:48;;;;;;;6.60;4.83;;;;;;;14.23;100.00;94429.63;5049383;28;20274;-45
2023/05/29 01:32:15;;;;;;;5.57;4.77;;;;;;;14.21;100.00;94429.00;5055984;28;20178;-45
2023/05/29 01:34:41;;;;;;;8.57;5.07;;;;;;;14.20;100.00;94434.31;5068958;28;20213;-45
2023/05/29 01:37:08;;;;;;;5.53;4.80;;;;;;;14.01;100.00;94410.59;5072351;28;20194;-46
2023/05/29 01:39:35;;;;;;;5.43;4.83;;;;;;;13.92;100.00;94398.72;5073796;28;20304;-46
2023/05/29 01:42:03;;;;;;;6.60;4.93;;;;;;;14.18;100.00;94437.06;5073785;28;20247;-44
2023/05/29 01:44:32;;;;;;;5.67;5.07;;;;;;;14.13;100.00;94423.88;5071949;28;20191;-46
2023/05/29 01:47:00;;;;;;;5.53;5.03;;;;;;;14.20;100.00;94434.31;5076088;28;20222;-46
2023/05/29 01:49:29;;;;;;;7.43;4.80;;;;;;;14.18;100.00;94431.91;5073497;28;20654;-44
2023/05/29 01:51:56;;;;;;;6.30;4.93;;;;;;;14.19;100.00;94435.28;5073257;28;20267;-45
2023/05/29 01:54:23;;;;;;;9.90;5.43;;;;;;;14.19;100.00;94425.00;5073362;28;20190;-46
2023/05/29 01:56:51;;;;;;;5.33;4.83;;;;;;;14.19;100.00;94433.50;5072808;28;20186;-44
2023/05/29 01:59:18;;;;;;;7.97;4.77;;;;;;;14.17;100.00;94422.59;5072913;28;20194;-46
2023/05/29 02:01:48;;;;;;;5.07;4.50;;;;;;;14.16;100.00;94423.56;5072633;28;20301;-44
2023/05/29 02:04:15;;;;;;;5.70;4.97;;;;;;;14.15;100.00;94427.09;5072047;28;20678;-46
2023/05/29 02:06:42;;;;;;;8.63;5.27;;;;;;;14.15;100.00;94426.28;5072183;28;20247;-44
2023/05/29 02:09:09;;;;;;;5.63;4.47;;;;;;;14.14;100.00;94428.06;5072416;28;20677;-43
2023/05/29 02:11:35;;;;;;;5.87;5.00;;;;;;;14.10;100.00;94419.06;5072513;28;20186;-44
2023/05/29 02:14:04;;;;;;;9.33;5.57;;;;;;;14.13;100.00;94423.09;5071942;28;20193;-44
2023/05/29 02:16:33;;;;;;;4.87;4.47;;;;;;;14.11;100.00;94425.81;5072643;28;20281;-45
2023/05/29 02:19:02;;;;;;;6.63;5.63;;;;;;;14.10;100.00;94413.13;5072099;28;20196;-45
2023/05/29 02:21:28;;;;;;;6.77;5.07;;;;;;;14.08;100.00;94403.03;5071492;28;20226;-44
2023/05/29 02:23:55;;;;;;;6.07;5.27;;;;;;;14.03;100.00;94398.38;5071862;28;20236;-42
2023/05/29 02:26:22;;;;;;;5.30;4.80;;;;;;;14.06;100.00;94416.03;5072932;28;20199;-46
2023/05/29 02:28:49;;;;;;;6.53;5.30;;;;;;;14.05;100.00;94411.06;5077501;28;20719;-45
2023/05/29 02:31:16;;;;;;;9.47;5.03;;;;;;;14.09;100.00;94416.69;5072474;28;20272;-44
2023/05/29 02:33:42;;;;;;;5.70;5.17;;;;;;;14.07;100.00;94419.41;5072078;28;20182;-44
2023/05/29 02:36:11;;;;;;;6.27;4.77;;;;;;;14.07;100.00;94424.53;5071794;28;20189;-44
2023/05/29 02:38:38;;;;;;;5.83;5.20;;;;;;;14.06;100.00;94417.78;5072148;28;20281;-45
2023/05/29 02:41:05;;;;;;;9.47;5.33;;;;;;;13.95;100.00;94411.25;5072169;28;20222;-45
2023/05/29 02:43:32;;;;;;;6.17;5.57;;;;;;;13.91;100.00;94402.25;5071558;28;20187;-44
2023/05/29 02:45:59;;;;;;;6.23;5.10;;;;;;;14.03;100.00;94426.66;5071128;28;20681;-44
2023/05/29 02:48:26;;;;;;;6.20;5.60;;;;;;;13.99;100.00;94416.88;5071682;28;20638;-45
2023/05/29 02:50:53;;;;;;;6.47;5.80;;;;;;;14.01;100.00;94425.22;5071744;28;20187;-44
2023/05/29 02:53:21;;;;;;;5.80;5.30;;;;;;;13.97;100.00;94423.94;5072094;28;20220;-45
2023/05/29 02:55:48;;;;;;;5.70;5.20;;;;;;;13.87;100.00;94410.47;5071464;28;20354;-44
2023/05/29 02:58:16;;;;;;;7.17;4.93;;;;;;;13.94;100.00;94422.47;5071737;28;20670;-44
2023/05/29 03:00:43;;;;;;;6.57;5.10;;;;;;;13.94;100.00;94419.91;5071497;28;20226;-45
2023/05/29 03:03:10;;;;;;;6.27;5.07;;;;;;;13.95;100.00;94428.44;5071162;28;20225;-45
2023/05/29 03:05:37;;;;;;;5.67;5.10;;;;;;;13.94;100.00;94419.91;5070853;28;20269;-45
2023/05/29 03:08:04;;;;;;;9.00;5.70;;;;;;;13.96;100.00;94423.13;5071562;28;20191;-44
2023/05/29 03:10:32;;;;;;;5.50;5.00;;;;;;;13.96;100.00;94423.13;5071263;28;20206;-43
2023/05/29 03:12:59;;;;;;;5.73;5.13;;;;;;;14.02;100.00;94424.22;5071319;28;20197;-44
2023/05/29 03:15:25;;;;;;;5.20;4.50;;;;;;;14.05;100.00;94429.06;5071107;28;20198;-44
2023/05/29 03:17:52;;;;;;;7.47;5.67;;;;;;;14.08;100.00;94426.16;5070656;28;20174;-45
2023/05/29 03:20:20;;;;;;;6.93;5.27;;;;;;;14.12;100.00;94422.28;5072656;28;20182;-45
2023/05/29 03:22:47;;;;;;;5.73;5.23;;;;;;;14.16;100.00;94426.13;5072318;28;20692;-46
2023/05/29 03:25:14;;;;;;;6.60;6.00;;;;;;;14.21;100.00;94425.63;5071407;28;20216;-46
2023/05/29 03:27:42;;;;;;;6.10;5.50;;;;;;;14.26;100.00;94421.59;5070438;28;20320;-46
2023/05/29 03:30:10;;;;;;;8.00;5.83;;;;;;;14.28;100.00;94429.94;5070816;28;20193;-44
2023/05/29 03:32:37;;;;;;;8.77;5.70;;;;;;;14.34;100.00;94430.25;5069784;28;20281;-43
2023/05/29 03:35:04;;;;;;;9.97;6.23;;;;;;;14.41;100.00;94426.03;5070900;28;20186;-45
2023/05/29 03:37:31;;;;;;;7.80;6.27;;;;;;;14.47;100.00;94427.94;5070564;28;20237;-45
2023/05/29 03:39:58;;;;;;;9.03;5.93;;;;;;;14.29;100.00;94399.88;5070954;28;20743;-44
2023/05/29 03:42:25;;;;;;;10.43;6.73;;;;;;;14.54;100.00;94439.19;5073785;28;20683;-46
2023/05/29 03:44:53;;;;;;;8.00;6.23;;;;;;;14.63;100.00;94450.25;5071067;28;20202;-46
2023/05/29 03:47:20;;;;;;;9.60;7.03;;;;;;;14.65;100.00;94456.84;5071430;28;20199;-43
2023/05/29 03:49:47;;;;;;;8.80;6.30;;;;;;;14.73;100.00;94456.00;5070156;28;20200;-48
2023/05/29 03:52:14;;;;;;;9.90;7.13;;;;;;;14.77;100.00;94460.63;5070057;28;20201;-45
2023/05/29 03:54:41;;;;;;;9.60;7.43;;;;;;;14.84;100.00;94454.81;5070841;28;20213;-47
2023/05/29 03:57:08;;;;;;;12.63;7.97;;;;;;;14.88;100.00;94453.50;5070259;28;20709;-44
2023/05/29 03:59:35;;;;;;;8.37;6.97;;;;;;;14.98;100.00;94454.91;5069750;28;20251;-45
2023/05/29 04:02:03;;;;;;;8.80;7.20;;;;;;;14.82;100.00;94418.94;5070260;28;20247;-44
2023/05/29 04:04:30;;;;;;;11.47;6.73;;;;;;;15.19;100.00;94463.75;5070528;28;20182;-46
2023/05/29 04:06:57;;;;;;;9.20;6.73;;;;;;;15.25;99.89;94465.66;5070693;28;20347;-45
2023/05/29 04:09:24;;;;;;;10.67;7.37;;;;;;;15.31;99.80;94464.97;5070065;28;20277;-45
2023/05/29 04:11:52;;;;;;;12.07;7.93;;;;;;;15.38;99.25;94471.03;5069916;28;20186;-44
2023/05/29 04:14:19;;;;;;;9.43;6.33;;;;;;;15.45;99.09;94469.34;5069984;28;20190;-43
2023/05/29 04:16:45;;;;;;;9.40;6.73;;;;;;;15.47;99.28;94467.44;5070006;28;20193;-45
2023/05/29 04:19:14;;;;;;;8.00;6.90;;;;;;;15.59;98.96;94475.56;5070165;28;20199;-46
2023/05/29 04:21:40;;;;;;;9.43;7.07;;;;;;;15.62;98.56;94475.19;5069802;28;20222;-46
2023/05/29 04:24:07;;;;;;;10.10;7.70;;;;;;;15.67;98.18;94470.38;5070343;28;20186;-44
2023/05/29 04:26:34;;;;;;;13.50;7.27;;;;;;;15.71;98.07;94474.16;5070067;28;20190;-45
2023/05/29 04:29:01;;;;;;;9.03;6.33;;;;;;;15.74;97.75;94467.88;5070429;28;20778;-43
2023/05/29 04:31:28;;;;;;;10.87;6.53;;;;;;;15.81;97.09;94468.78;5073713;28;20282;-43
2023/05/29 04:33:55;;;;;;;8.80;6.63;;;;;;;15.87;96.30;94465.50;5071131;28;20201;-46
2023/05/29 04:36:25;;;;;;;7.67;6.10;;;;;;;16.09;95.26;94471.56;5070519;28;20186;-54
2023/05/29 04:38:53;;;;;;;12.03;6.73;;;;;;;16.30;94.14;94482.00;5070711;28;20210;-45
2023/05/29 04:41:23;;;;;;;10.93;6.77;;;;;;;16.45;93.45;94484.59;5070725;28;20229;-44
2023/05/29 04:43:50;;;;;;;12.43;8.13;;;;;;;16.58;92.78;94476.22;5070958;28;20189;-44
2023/05/29 04:46:17;;;;;;;10.83;6.67;;;;;;;16.63;94.41;94465.34;5070633;28;20197;-45
2023/05/29 04:48:44;;;;;;;8.27;6.33;;;;;;;16.81;93.36;94486.44;5072785;28;20186;-46
2023/05/29 04:51:11;;;;;;;9.70;6.23;;;;;;;16.85;91.78;94471.41;5078935;28;20616;-44
2023/05/29 04:53:41;;;;;;;11.77;7.10;;;;;;;17.03;91.72;94474.38;5074913;28;20638;-48
2023/05/29 04:56:08;;;;;;;12.93;7.37;;;;;;;17.08;91.43;94479.00;5072330;28;20689;-45
2023/05/29 04:58:34;;;;;;;11.87;7.93;;;;;;;17.10;91.08;94480.41;5076461;28;20619;-46
2023/05/29 05:01:02;;;;;;;9.20;7.50;;;;;;;17.13;90.97;94481.81;5077421;28;20221;-45
2023/05/29 05:03:30;;;;;;;12.27;7.20;;;;;;;17.13;90.05;94495.53;5074224;28;20721;-47
2023/05/29 05:05:58;;;;;;;10.80;7.20;;;;;;;17.05;89.36;94473.22;5080899;28;20182;-46
2023/05/29 05:08:24;;;;;;;12.33;8.27;;;;;;;17.29;89.29;94497.91;5079606;28;20226;-46
2023/05/29 05:10:53;;;;;;;11.33;7.23;;;;;;;17.36;89.42;94507.50;5072333;28;20194;-45
2023/05/29 05:13:19;;;;;;;12.87;7.10;;;;;;;17.42;89.52;94506.78;5069469;28;20195;-45
2023/05/29 05:15:46;;;;;;;10.20;7.23;;;;;;;17.49;88.96;94515.41;5069139;28;20208;-43
2023/05/29 05:18:13;;;;;;;13.07;8.13;;;;;;;17.70;87.87;94520.56;5069617;28;20210;-45
2023/05/29 05:20:40;;;;;;;14.90;8.40;;;;;;;17.62;87.26;94496.63;5069886;28;20182;-45
2023/05/29 05:23:07;;;;;;;16.70;8.37;;;;;;;17.74;86.78;94523.59;5069294;28;20194;-44
2023/05/29 05:25:35;;;;;;;12.80;8.57;;;;;;;17.71;86.88;94522.16;5069609;28;20285;-45
2023/05/29 05:28:04;;;;;;;20.47;8.73;;;;;;;17.63;87.15;94522.28;5069042;28;20233;-47
2023/05/29 05:30:30;;;;;;;12.37;9.30;;;;;;;17.11;87.62;94443.25;5069438;28;20190;-45
2023/05/29 05:32:57;;;;;;;16.53;8.53;;;;;;;17.60;88.00;94520.06;5069392;28;20194;-46
2023/05/29 05:35:25;;;;;;;18.03;9.03;;;;;;;17.52;88.24;94507.25;5069493;28;20546;-47
2023/05/29 05:37:52;;;;;;;15.53;8.33;;;;;;;17.66;87.52;94519.34;5068960;28;20190;-46
2023/05/29 05:40:19;;;;;;;17.27;8.00;;;;;;;17.60;86.93;94501.97;5069348;28;20194;-45
2023/05/29 05:42:46;;;;;;;14.70;7.80;;;;;;;17.85;86.56;94530.88;5068896;28;20666;-46
2023/05/29 05:45:14;;;;;;;11.53;8.17;;;;;;;17.92;86.24;94525.72;5069171;28;20220;-46
2023/05/29 05:47:41;;;;;;;16.10;8.43;;;;;;;17.94;85.97;94516.81;5069026;28;20685;-45
2023/05/29 05:50:09;;;;;;;14.50;8.03;;;;;;;18.07;85.99;94533.44;5069511;28;20186;-45
2023/05/29 05:52:35;;;;;;;9.63;6.80;;;;;;;18.01;84.83;94516.88;5069216;28;20195;-45
2023/05/29 05:55:03;;;;;;;10.03;6.20;;;;;;;18.10;84.59;94522.72;5069077;28;20189;-45
2023/05/29 05:57:32;;;;;;;17.97;7.93;;;;;;;18.15;83.46;94497.06;5069079;28;20602;-46
2023/05/29 05:59:59;;;;;;;7.93;7.10;;;;;;;18.53;82.54;94531.16;5068797;28;20815;-46
2023/05/29 06:02:27;;;;;;;15.00;6.77;;;;;;;18.67;82.14;94532.81;5068985;28;20605;-47
2023/05/29 06:04:54;;;;;;;11.30;7.07;;;;;;;18.89;81.41;94517.22;5068990;28;20194;-44
2023/05/29 06:07:21;;;;;;;8.30;6.97;;;;;;;19.22;80.10;94525.13;5068930;28;20205;-46
2023/05/29 06:09:48;;;;;;;16.53;7.37;;;;;;;19.25;79.37;94515.13;5068789;28;20244;-46
2023/05/29 06:12:15;;;;;;;14.80;6.00;;;;;;;19.52;79.16;94523.00;5068815;28;20186;-44
2023/05/29 06:14:42;;;;;;;16.27;7.60;;;;;;;19.75;77.54;94523.44;5068872;28;20194;-45
2023/05/29 06:17:09;;;;;;;8.57;5.60;;;;;;;19.99;76.15;94529.88;5070268;28;20191;-44
2023/05/29 06:19:37;;;;;;;13.77;6.47;;;;;;;20.22;75.98;94523.47;5070783;28;20179;-46
2023/05/29 06:22:04;;;;;;;8.10;5.27;;;;;;;20.60;74.58;94531.44;5070220;28;20773;-45
2023/05/29 06:24:31;;;;;;;6.30;5.70;;;;;;;20.70;72.82;94539.59;5072521;28;20190;-47
2023/05/29 06:26:58;;;;;;;11.98;5.88;;;;;;;20.74;73.04;94540.78;5072223;28;20752;-46
2023/05/29 06:29:24;;;;;;;8.77;5.78;;;;;;;20.82;72.49;94555.38;5072069;28;20233;-45
2023/05/29 06:31:51;;;;;;;6.68;5.45;;;;;;;20.75;73.11;94544.97;5072091;28;20273;-46
2023/05/29 06:34:18;;;;;;;7.78;4.80;;;;;;;20.85;72.37;94549.75;5073574;28;20201;-44
2023/05/29 06:36:46;;;;;;;8.82;5.38;;;;;;;21.07;71.89;94521.69;5073420;28;20194;-45
2023/05/29 06:39:15;;;;;;;7.22;5.40;;;;;;;21.64;69.92;94517.41;5072541;28;20277;-45
2023/05/29 06:41:41;;;;;;;8.65;4.25;;;;;;;22.20;67.34;94549.69;5072293;28;20257;-45
2023/05/29 06:44:08;;;;;;;4.18;3.67;;;;;;;22.52;65.52;94542.56;5071996;28;20194;-47
2023/05/29 06:46:35;;;;;;;6.85;3.97;;;;;;;22.65;65.24;94539.84;5071992;28;20256;-46
2023/05/29 06:49:02;;;;;;;6.25;3.53;;;;;;;22.83;64.34;94543.47;5072136;28;20182;-45
2023/05/29 06:51:29;;;;;;;7.82;3.72;;;;;;;22.66;64.78;94543.25;5074654;28;20205;-46
2023/05/29 06:53:57;;;;;;;4.68;3.45;;;;;;;22.71;65.52;94540.78;5073226;28;20687;-43
2023/05/29 06:56:23;;;;;;;4.25;2.92;;;;;;;23.16;63.76;94541.31;5072112;28;20197;-44
2023/05/29 06:58:50;;;;;;;4.25;3.72;;;;;;;23.31;62.86;94550.56;5071728;28;20190;-46
2023/05/29 07:01:17;;;;;;;4.45;3.60;;;;;;;23.40;62.88;94554.47;5071180;28;20201;-46
2023/05/29 07:03:44;;;;;;;7.32;3.78;;;;;;;23.52;62.93;94539.66;5072079;28;20269;-45
2023/05/29 07:06:11;;;;;;;6.72;3.80;;;;;;;23.53;62.13;94546.47;5071903;28;20178;-46
2023/05/29 07:08:38;;;;;;;7.25;3.50;;;;;;;23.27;62.45;94513.69;5071450;28;20186;-45
2023/05/29 07:11:06;;;;;;;7.57;3.47;;;;;;;23.61;61.94;94540.94;5071750;28;20197;-44
2023/05/29 07:13:33;;;;;;;3.75;3.40;;;;;;;23.51;61.19;94533.63;5071465;28;20194;-46
2023/05/29 07:15:59;;;;;;;4.15;3.15;;;;;;;23.41;61.89;94536.00;5071179;28;20182;-44
2023/05/29 07:18:26;;;;;;;8.38;3.28;;;;;;;23.46;62.11;94543.16;5071424;28;20190;-45
2023/05/29 07:20:53;;;;;;;4.88;2.83;;;;;;;23.50;61.19;94545.13;5071736;28;20179;-44
2023/05/29 07:23:20;;;;;;;4.43;2.92;;;;;;;23.21;62.19;94544.06;5070948;28;20705;-45
2023/05/29 07:25:47;;;;;;;4.18;2.97;;;;;;;23.09;62.54;94542.41;5071120;28;20191;-44
2023/05/29 07:28:15;;;;;;;4.63;2.70;;;;;;;22.83;61.62;94540.88;5070616;28;20230;-44
2023/05/29 07:30:42;;;;;;;4.15;3.67;;;;;;;22.84;61.93;94548.50;5071389;28;20224;-45
2023/05/29 07:33:09;;;;;;;3.28;2.92;;;;;;;22.67;61.85;94540.44;5070019;28;20193;-45
2023/05/29 07:35:36;;;;;;;2.85;2.40;;;;;;;22.41;63.23;94554.53;5071191;28;20654;-46
2023/05/29 07:38:03;;;;;;;4.22;2.55;;;;;;;22.24;64.34;94540.44;5070989;28;20198;-45
2023/05/29 07:40:30;;;;;;;4.88;2.80;;;;;;;22.19;64.79;94538.47;5071009;28;20198;-45
2023/05/29 07:42:56;;;;;;;6.43;3.00;;;;;;;22.29;65.41;94543.19;5070877;28;20220;-46
2023/05/29 07:45:25;;;;;;;3.10;2.45;;;;;;;22.34;64.61;94538.13;5070768;28;20194;-45
2023/05/29 07:47:51;;;;;;;3.10;2.83;;;;;;;22.21;64.60;94546.06;5070979;28;20244;-44
2023/05/29 07:50:19;;;;;;;3.97;3.50;;;;;;;22.27;64.54;94545.19;5070429;28;20688;-46
2023/05/29 07:52:46;;;;;;;3.55;3.10;;;;;;;22.61;64.50;94543.09;5070614;28;20194;-45
2023/05/29 07:55:13;;;;;;;4.15;3.33;;;;;;;23.06;63.06;94546.28;5070506;28;20186;-46
2023/05/29 07:57:40;;;;;;;4.85;4.07;;;;;;;23.20;61.55;94539.88;5070995;28;20597;-46
2023/05/29 08:00:09;;;;;;;6.03;3.80;;;;;;;23.08;61.88;94522.56;5070217;28;20228;-45
2023/05/29 08:02:37;;;;;;;4.97;3.90;;;;;;;22.96;62.98;94532.94;5070559;28;20314;-46
2023/05/29 08:05:04;;;;;;;4.68;3.03;;;;;;;22.85;63.34;94541.47;5070618;28;20197;-45
2023/05/29 08:07:32;;;;;;;4.57;2.75;;;;;;;22.86;63.46;94541.22;5070640;28;20737;-46
2023/05/29 08:09:58;;;;;;;5.05;2.83;;;;;;;22.93;63.08;94536.78;5070327;28;20243;-43
2023/05/29 08:12:25;;;;;;;6.22;3.10;;;;;;;23.03;63.41;94538.88;5070624;28;20186;-47
2023/05/29 08:14:52;;;;;;;3.10;2.83;;;;;;;23.18;62.79;94538.47;5070565;28;20198;-44
2023/05/29 08:17:19;;;;;;;3.08;2.83;;;;;;;23.18;61.40;94541.88;5070618;28;20206;-45
2023/05/29 08:19:47;;;;;;;2.92;2.63;;;;;;;22.93;61.54;94536.00;5070311;28;20661;-45
2023/05/29 08:22:15;;;;;;;7.18;3.30;;;;;;;22.88;61.96;94549.63;5069768;28;20705;-46
2023/05/29 08:24:42;;;;;;;3.92;2.40;;;;;;;22.75;62.48;94544.56;5070112;28;20278;-46
2023/05/29 08:27:09;;;;;;;5.38;3.25;;;;;;;22.68;63.10;94541.22;5069587;28;20615;-45
2023/05/29 08:29:36;;;;;;;3.22;2.67;;;;;;;22.70;63.33;94549.63;5070230;28;20212;-46
2023/05/29 08:32:03;;;;;;;3.92;2.70;;;;;;;22.77;63.19;94551.16;5069734;28;20194;-47
2023/05/29 08:34:30;;;;;;;4.60;2.83;;;;;;;22.87;63.00;94548.03;5070457;28;20186;-47
2023/05/29 08:36:59;;;;;;;4.07;2.65;;;;;;;22.90;63.26;94557.28;5069785;28;20708;-44
2023/05/29 08:39:26;;;;;;;6.30;2.80;;;;;;;22.76;63.67;94540.94;5071689;28;20201;-45
2023/05/29 08:42:01;;;;;;;2.95;2.67;;;;;;;22.72;63.41;94542.41;5069930;28;20187;-46
2023/05/29 08:44:31;;;;;;;7.57;2.80;;;;;;;22.53;63.85;94536.34;5069853;28;20182;-45
2023/05/29 08:47:03;;;;;;;7.07;3.15;;;;;;;22.65;64.15;94542.44;5069463;28;20197;-52
2023/05/29 08:49:35;;;;;;;4.68;2.95;;;;;;;22.72;64.21;94539.78;5070058;28;20761;-47
2023/05/29 08:52:12;;;;;;;2.80;2.60;;;;;;;22.79;64.08;94536.06;5069679;28;20639;-44
2023/05/29 08:54:41;;;;;;;2.85;2.65;;;;;;;22.85;62.76;94537.03;5071595;28;20213;-44
2023/05/29 08:57:08;;;;;;;2.90;2.70;;;;;;;22.76;60.16;94531.31;5069486;28;20198;-48
2023/05/29 08:59:35;;;;;;;4.72;2.60;;;;;;;22.65;60.23;94531.22;5069742;28;20194;-46
2023/05/29 09:02:02;;;;;;;3.78;3.20;;;;;;;22.60;59.57;94515.44;5069187;28;20290;-46
2023/05/29 09:04:30;;;;;;;3.47;3.17;;;;;;;23.00;59.40;94527.06;5069668;28;20178;-47
2023/05/29 09:06:58;;;;;;;3.95;2.50;;;;;;;23.33;57.55;94512.03;5069376;28;20194;-46
2023/05/29 09:09:27;;;;;;;4.22;3.38;;;;;;;23.47;57.10;94521.25;5069581;28;20369;-46
2023/05/29 09:11:55;;;;;;;6.05;3.88;;;;;;;23.39;56.80;94506.69;5069560;28;20277;-46
2023/05/29 09:14:36;;;;;;;3.85;2.90;;;;;;;23.47;56.46;94503.78;5069355;28;20198;-46
2023/05/29 09:17:05;;;;;;;4.55;2.90;;;;;;;23.33;56.65;94486.72;5069118;28;20213;-45
2023/05/29 09:19:32;;;;;;;5.80;3.58;;;;;;;23.52;56.20;94509.13;5069467;28;20204;-47
2023/05/29 09:22:03;;;;;;;3.47;3.00;;;;;;;23.74;55.60;94506.03;5069248;28;20202;-45
2023/05/29 09:24:34;;;;;;;5.28;3.17;;;;;;;23.94;54.66;94496.09;5069500;28;20212;-46
2023/05/29 09:27:01;;;;;;;2.83;2.60;;;;;;;23.99;53.48;94495.41;5068906;28;20574;-46
2023/05/29 09:29:28;;;;;;;3.83;2.95;;;;;;;23.87;54.22;94498.00;5069009;28;20576;-47
2023/05/29 09:31:55;;;;;;;2.95;2.50;;;;;;;23.66;54.89;94490.69;5069141;28;20197;-47
2023/05/29 09:34:26;;;;;;;5.10;3.17;;;;;;;23.73;54.43;94491.41;5069227;28;20205;-47
2023/05/29 09:36:53;;;;;;;5.00;3.22;;;;;;;23.66;54.83;94478.47;5069257;28;20280;-45
2023/05/29 09:39:20;;;;;;;5.32;2.90;;;;;;;23.59;55.28;94484.75;5069236;28;20194;-44
2023/05/29 09:41:49;;;;;;;6.28;3.90;;;;;;;23.37;55.38;94480.03;5069456;28;20202;-47
2023/05/29 09:44:16;;;;;;;5.38;3.50;;;;;;;23.01;55.45;94450.41;5069059;28;20222;-47
2023/05/29 09:46:43;;;;;;;4.43;3.42;;;;;;;22.90;56.06;94474.63;5069437;28;20194;-47
2023/05/29 09:49:12;;;;;;;3.40;3.10;;;;;;;23.00;56.11;94484.53;5069056;28;20222;-45
2023/05/29 09:51:39;;;;;;;3.70;3.00;;;;;;;23.04;55.93;94470.03;5069214;28;20229;-47
2023/05/29 09:54:19;;;;;;;2.90;2.70;;;;;;;23.10;55.94;94477.00;5068525;28;20608;-46
2023/05/29 09:56:48;;;;;;;4.57;3.30;;;;;;;23.15;55.62;94458.06;5070374;28;20236;-46
2023/05/29 09:59:18;;;;;;;5.20;3.30;;;;;;;23.35;55.53;94455.97;5072369;28;20195;-47
2023/05/29 10:01:45;;;;;;;4.03;3.35;;;;;;;23.76;54.71;94463.03;5072912;28;20182;-46
2023/05/29 10:04:12;;;;;;;3.50;3.20;;;;;;;23.89;54.97;94458.63;5072473;28;20225;-47
2023/05/29 10:06:42;;;;;;;7.20;3.38;;;;;;;23.86;54.23;94446.00;5072959;28;20202;-45
2023/05/29 10:09:11;;;;;;;4.93;3.97;;;;;;;24.13;53.98;94472.47;5072546;28;20190;-47
2023/05/29 10:11:41;;;;;;;4.10;3.53;;;;;;;23.71;54.31;94436.00;5072788;28;20190;-46
2023/05/29 10:14:13;;;;;;;7.47;3.28;;;;;;;23.75;55.22;94461.44;5072274;28;20190;-46
2023/05/29 10:16:43;;;;;;;3.80;3.03;;;;;;;23.88;54.33;94462.25;5072932;28;20205;-44
2023/05/29 10:19:13;;;;;;;2.97;2.70;;;;;;;23.95;54.61;94461.09;5072377;28;20613;-44
2023/05/29 10:21:42;;;;;;;5.03;3.83;;;;;;;24.07;54.15;94468.94;5072735;28;20198;-44
2023/05/29 10:24:11;;;;;;;4.88;3.25;;;;;;;24.08;54.48;94461.91;5072096;28;20226;-46
2023/05/29 10:26:42;;;;;;;3.35;2.90;;;;;;;24.05;53.18;94457.94;5072489;28;20228;-44
2023/05/29 10:29:14;;;;;;;2.78;2.58;;;;;;;24.17;52.44;94453.50;5071928;28;20230;-46
2023/05/29 10:31:54;;;;;;;3.03;2.70;;;;;;;24.23;52.49;94449.19;5072584;28;20190;-45
2023/05/29 10:34:32;;;;;;;4.80;2.80;;;;;;;24.37;52.44;94442.72;5072037;28;20228;-45
2023/05/29 10:37:07;;;;;;;3.13;2.83;;;;;;;24.61;52.11;94459.19;5072389;28;20201;-43
2023/05/29 10:39:34;;;;;;;3.38;2.95;;;;;;;24.50;51.85;94452.94;5072915;28;20182;-46
2023/05/29 10:42:01;;;;;;;3.45;2.92;;;;;;;24.44;51.67;94450.47;5074570;28;20193;-44
2023/05/29 10:44:42;;;;;;;4.63;2.72;;;;;;;24.43;51.71;94456.69;5072158;28;20226;-46
2023/05/29 10:47:10;;;;;;;4.35;3.22;;;;;;;24.46;51.63;94453.63;5072188;28;20186;-44
2023/05/29 10:49:37;;;;;;;3.90;3.05;;;;;;;24.52;51.28;94443.06;5072152;28;20288;-45
2023/05/29 10:52:06;;;;;;;3.67;3.03;;;;;;;24.54;50.67;94434.97;5072366;28;20307;-44
2023/05/29 10:54:50;;;;;;;3.75;3.33;;;;;;;24.52;50.98;94439.63;5072271;28;20218;-45
2023/05/29 10:57:17;;;;;;;3.05;2.75;;;;;;;24.24;51.87;94437.72;5071986;28;20190;-45
2023/05/29 10:59:47;;;;;;;4.78;3.20;;;;;;;24.07;52.18;94434.19;5072493;28;20198;-45
2023/05/29 11:02:20;;;;;;;3.65;3.33;;;;;;;23.87;52.79;94429.28;5071685;28;20197;-46
2023/05/29 11:05:05;;;;;;;3.85;3.25;;;;;;;23.47;53.83;94425.47;5073302;28;20210;-45
2023/05/29 11:07:36;;;;;;;3.22;2.92;;;;;;;23.40;54.39;94424.78;5075112;28;20336;-45
2023/05/29 11:10:13;;;;;;;4.03;3.20;;;;;;;23.25;54.52;94424.41;5076309;28;20259;-46
2023/05/29 11:12:58;;;;;;;4.20;2.92;;;;;;;23.16;54.72;94428.34;5075735;28;20653;-45
2023/05/29 11:15:27;;;;;;;3.10;2.70;;;;;;;23.15;55.11;94424.94;5072417;28;20190;-50
2023/05/29 11:17:55;;;;;;;4.15;3.28;;;;;;;23.23;54.00;94419.41;5073722;28;20186;-46
2023/05/29 11:20:37;;;;;;;4.18;3.28;;;;;;;23.36;54.05;94418.44;5073426;28;20638;-50
2023/05/29 11:23:08;;;;;;;4.03;3.50;;;;;;;23.37;55.04;94420.00;5071996;28;20232;-46
2023/05/29 11:25:36;;;;;;;4.43;3.08;;;;;;;23.25;57.27;94408.75;5072896;28;20581;-45
2023/05/29 11:28:08;;;;;;;3.33;2.97;;;;;;;23.58;56.44;94410.88;5072756;28;20230;-46
2023/05/29 11:30:47;;;;;;;6.30;3.50;;;;;;;23.68;56.53;94398.06;5075095;28;20182;-46
2023/05/29 11:33:24;;;;;;;6.70;3.58;;;;;;;23.90;55.55;94405.34;5072402;28;20281;-44